Morrison, Tennessee
Current Conditions -  °F | °C
As of 8:15 PM on Friday 31 Oct 2014 (Local Time) from KRNC Reporting Station
Broken Clouds Broken Clouds  
Wind Chill: 32°   Ceiling: 5500
Heat Index: 37°   Visibility: 10mi
Dew Point: 30°   Wind: 7mph
Humidity: 75%   Direction: 320°NW
Pressure: 30.09"   Gusts: NA
Location:  35.6°N, 85.92°W
Report Text: KRNC 010115Z AUTO 32006KT 10SM BKN055 03/M01 A3009 RMK
Loading
Personal Weather Stations






























Interactive Weather Map
Tropical Storm Tracking
New forecast layout! Learn more

10-Day Weather Forecast

Advertisements
Track Severe Weather on mobile